Time;durP1;ratioP1;P1;durP2;ratioP2;P2;SDS_P1;SDS_P2;PMS_P1;PMS_P2;Temp;Humidity;BMP_temperature;BMP_pressure;BME280_temperature;BME280_humidity;BME280_pressure;Samples;Min_cycle;Max_cycle;Signal;HPM_P1;HPM_P2
2023/11/29 00:01:44;;;;;;;1.70;1.60;;;0.50;98.20;;;;;;5028040;28;20486;-78
2023/11/29 00:04:12;;;;;;;2.20;2.00;;;0.50;98.20;;;;;;5038824;28;20480;-78
2023/11/29 00:06:39;;;;;;;1.70;1.60;;;0.50;98.20;;;;;;5026570;28;20486;-80
2023/11/29 00:09:06;;;;;;;1.70;1.60;;;0.50;98.20;;;;;;5033785;28;20487;-77
2023/11/29 00:11:33;;;;;;;1.80;1.70;;;0.50;98.20;;;;;;5019573;28;20989;-77
2023/11/29 00:13:59;;;;;;;2.10;1.90;;;0.50;98.20;;;;;;5029947;28;20483;-78
2023/11/29 00:16:26;;;;;;;1.70;1.60;;;0.50;98.20;;;;;;5026700;28;20478;-77
2023/11/29 00:18:53;;;;;;;1.80;1.70;;;0.60;98.20;;;;;;5041743;28;20461;-78
2023/11/29 00:21:21;;;;;;;1.70;1.60;;;0.60;98.20;;;;;;5019371;28;20479;-76
2023/11/29 00:23:48;;;;;;;1.70;1.60;;;0.60;98.20;;;;;;5025888;28;20490;-78
2023/11/29 00:26:15;;;;;;;1.80;1.70;;;0.60;98.20;;;;;;5023088;28;20504;-78
2023/11/29 00:28:42;;;;;;;1.70;1.57;;;0.60;98.20;;;;;;5036646;28;20482;-78
2023/11/29 00:31:08;;;;;;;1.70;1.60;;;0.70;98.20;;;;;;5019377;28;20591;-77
2023/11/29 00:33:35;;;;;;;1.70;1.60;;;0.70;98.20;;;;;;5041771;28;20471;-79
2023/11/29 00:36:03;;;;;;;1.70;1.60;;;0.70;98.20;;;;;;5022422;28;20528;-79
2023/11/29 00:38:32;;;;;;;1.70;1.50;;;0.70;98.20;;;;;;5026409;28;20452;-78
2023/11/29 00:40:59;;;;;;;1.70;1.60;;;0.70;98.20;;;;;;5026373;28;20470;-77
2023/11/29 00:43:26;;;;;;;1.87;1.70;;;0.70;98.20;;;;;;5049514;28;20520;-81
2023/11/29 00:45:52;;;;;;;1.80;1.70;;;0.70;98.20;;;;;;5020550;28;20499;-78
2023/11/29 00:48:19;;;;;;;1.80;1.70;;;0.70;98.20;;;;;;5037356;28;20486;-78
2023/11/29 00:50:46;;;;;;;1.80;1.70;;;0.70;98.20;;;;;;5033753;28;20526;-82
2023/11/29 00:53:13;;;;;;;1.70;1.50;;;0.70;98.20;;;;;;5040768;28;20577;-78
2023/11/29 00:55:41;;;;;;;1.70;1.60;;;0.70;98.20;;;;;;5055676;28;20450;-79
2023/11/29 00:58:08;;;;;;;1.70;1.60;;;0.70;98.20;;;;;;5051316;28;20969;-77
2023/11/29 01:00:35;;;;;;;1.80;1.70;;;0.80;98.20;;;;;;5055672;28;20526;-79
2023/11/29 01:03:01;;;;;;;1.80;1.70;;;0.80;98.20;;;;;;5045980;28;20492;-78
2023/11/29 01:05:28;;;;;;;1.70;1.60;;;0.80;98.20;;;;;;5053840;28;20457;-79
2023/11/29 01:07:55;;;;;;;1.70;1.50;;;0.80;98.20;;;;;;5047133;28;20493;-77
2023/11/29 01:10:22;;;;;;;1.70;1.60;;;0.80;98.20;;;;;;5056509;28;20447;-78
2023/11/29 01:12:50;;;;;;;1.70;1.60;;;0.80;98.20;;;;;;5048368;28;20474;-78
2023/11/29 01:15:18;;;;;;;1.70;1.53;;;0.80;98.20;;;;;;5054230;28;20474;-78
2023/11/29 01:17:45;;;;;;;1.70;1.60;;;0.80;98.20;;;;;;5053931;28;20473;-80
2023/11/29 01:20:12;;;;;;;2.10;1.90;;;0.80;98.20;;;;;;5055619;28;21505;-77
2023/11/29 01:22:38;;;;;;;2.03;1.83;;;0.90;98.20;;;;;;5054514;28;20477;-79
2023/11/29 01:25:06;;;;;;;1.70;1.60;;;0.90;98.20;;;;;;5054929;28;20573;-79
2023/11/29 01:27:33;;;;;;;1.70;1.60;;;0.90;98.20;;;;;;5058058;28;20485;-79
2023/11/29 01:30:03;;;;;;;1.70;1.50;;;0.90;98.20;;;;;;5057201;28;20539;-78
2023/11/29 01:32:30;;;;;;;1.70;1.50;;;1.00;98.20;;;;;;5048056;28;20481;-79
2023/11/29 01:34:56;;;;;;;1.70;1.60;;;1.00;98.20;;;;;;5056953;28;20959;-80
2023/11/29 01:37:23;;;;;;;1.70;1.60;;;1.10;98.20;;;;;;5058258;28;20484;-79
2023/11/29 01:39:50;;;;;;;2.10;1.90;;;1.10;98.20;;;;;;5060849;28;20529;-79
2023/11/29 01:42:17;;;;;;;1.70;1.50;;;1.10;98.20;;;;;;5051364;28;20481;-79
2023/11/29 01:44:44;;;;;;;1.70;1.60;;;1.10;98.20;;;;;;5060744;28;20485;-78
2023/11/29 01:47:15;;;;;;;1.77;1.67;;;1.20;98.20;;;;;;5050521;28;20482;-79
2023/11/29 01:49:42;;;;;;;1.70;1.60;;;1.20;98.20;;;;;;5058518;28;20496;-79
2023/11/29 01:52:10;;;;;;;1.70;1.50;;;1.20;98.20;;;;;;5049076;28;20487;-79
2023/11/29 01:54:37;;;;;;;1.70;1.50;;;1.20;98.20;;;;;;5057982;28;20478;-81
2023/11/29 01:57:04;;;;;;;2.40;2.20;;;1.20;98.20;;;;;;5045919;28;20486;-78
2023/11/29 01:59:31;;;;;;;1.70;1.50;;;1.20;98.20;;;;;;5042785;28;20455;-80
2023/11/29 02:01:58;;;;;;;1.80;1.60;;;1.20;98.20;;;;;;5028836;28;20493;-80
2023/11/29 02:04:26;;;;;;;2.77;2.57;;;1.10;98.20;;;;;;5035307;28;20518;-80
2023/11/29 02:06:53;;;;;;;1.70;1.50;;;1.10;98.20;;;;;;5026476;28;20478;-78
2023/11/29 02:09:20;;;;;;;1.70;1.50;;;1.10;98.20;;;;;;5037487;28;20514;-79
2023/11/29 02:11:48;;;;;;;1.70;1.53;;;1.10;98.20;;;;;;5036258;28;20474;-79
2023/11/29 02:14:15;;;;;;;1.70;1.50;;;1.10;98.20;;;;;;5041047;28;20484;-79
2023/11/29 02:16:42;;;;;;;1.70;1.50;;;1.10;98.20;;;;;;5034118;28;21147;-79
2023/11/29 02:19:09;;;;;;;1.80;1.70;;;1.10;98.20;;;;;;5038435;28;20544;-80
2023/11/29 02:21:37;;;;;;;1.70;1.60;;;1.10;98.20;;;;;;5030226;28;20475;-77
2023/11/29 02:24:08;;;;;;;1.70;1.60;;;1.00;98.20;;;;;;5042911;28;20489;-79
2023/11/29 02:26:36;;;;;;;1.70;1.60;;;1.00;98.20;;;;;;5027234;28;20558;-79
2023/11/29 02:29:03;;;;;;;1.70;1.50;;;1.00;98.20;;;;;;5035643;28;20490;-80
2023/11/29 02:31:30;;;;;;;1.70;1.60;;;1.00;98.20;;;;;;5032329;28;20474;-77
2023/11/29 02:33:56;;;;;;;1.70;1.60;;;1.00;98.20;;;;;;5042312;28;20484;-78
2023/11/29 02:36:23;;;;;;;1.70;1.60;;;0.90;98.20;;;;;;5025562;28;21021;-77
2023/11/29 02:38:50;;;;;;;1.70;1.50;;;0.90;98.20;;;;;;5035093;28;20448;-81
2023/11/29 02:41:17;;;;;;;1.73;1.63;;;1.00;98.20;;;;;;5026964;28;20492;-78
2023/11/29 02:43:45;;;;;;;1.70;1.60;;;0.90;98.20;;;;;;5035901;28;20482;-80
2023/11/29 02:46:12;;;;;;;2.23;2.03;;;0.90;98.20;;;;;;5026490;28;20582;-78
2023/11/29 02:48:38;;;;;;;1.70;1.60;;;0.90;98.20;;;;;;5040962;28;20552;-78
2023/11/29 02:51:06;;;;;;;1.70;1.53;;;0.90;98.20;;;;;;5026981;28;20459;-77
2023/11/29 02:53:32;;;;;;;1.80;1.70;;;0.90;98.20;;;;;;5035244;28;20498;-79
2023/11/29 02:55:59;;;;;;;1.70;1.60;;;0.90;98.20;;;;;;5024466;28;21029;-78
2023/11/29 02:58:26;;;;;;;1.70;1.60;;;1.00;98.20;;;;;;5050105;28;20925;-80
2023/11/29 03:00:54;;;;;;;1.70;1.60;;;1.00;98.20;;;;;;5020074;28;20455;-78
2023/11/29 03:03:21;;;;;;;1.80;1.70;;;1.00;98.20;;;;;;5045845;28;20517;-79
2023/11/29 03:05:49;;;;;;;1.70;1.50;;;1.00;98.20;;;;;;5023118;28;20478;-79
2023/11/29 03:08:15;;;;;;;1.70;1.50;;;1.00;98.20;;;;;;5045652;28;21106;-77
2023/11/29 03:10:42;;;;;;;1.70;1.50;;;1.10;98.20;;;;;;5026524;28;20456;-79
2023/11/29 03:13:09;;;;;;;1.70;1.60;;;1.10;98.20;;;;;;5041356;28;20487;-80
2023/11/29 03:15:36;;;;;;;1.80;1.70;;;1.10;98.20;;;;;;5054275;28;20549;-82
2023/11/29 03:18:04;;;;;;;1.70;1.50;;;1.20;98.20;;;;;;5058840;28;20484;-79
2023/11/29 03:20:31;;;;;;;1.70;1.50;;;1.20;98.20;;;;;;5037181;28;20451;-79
2023/11/29 03:22:58;;;;;;;1.70;1.57;;;1.20;98.20;;;;;;5044411;28;20569;-79
2023/11/29 03:25:24;;;;;;;1.70;1.50;;;1.20;98.20;;;;;;5044042;28;20462;-79
2023/11/29 03:27:51;;;;;;;1.70;1.60;;;1.30;98.20;;;;;;5059362;28;20569;-80
2023/11/29 03:30:18;;;;;;;1.70;1.60;;;1.30;98.20;;;;;;5052741;28;20593;-77
2023/11/29 03:32:45;;;;;;;1.70;1.50;;;1.30;98.20;;;;;;5039661;28;20485;-77
2023/11/29 03:35:13;;;;;;;1.70;1.50;;;1.30;98.20;;;;;;5046977;28;20990;-77
2023/11/29 03:37:40;;;;;;;1.73;1.63;;;1.30;98.20;;;;;;5052456;28;20606;-77
2023/11/29 03:40:08;;;;;;;1.80;1.70;;;1.30;98.20;;;;;;5049935;28;20545;-78
2023/11/29 03:42:35;;;;;;;1.80;1.70;;;1.30;98.20;;;;;;5050170;28;20481;-77
2023/11/29 03:45:02;;;;;;;1.67;1.50;;;1.40;98.20;;;;;;5050547;28;20493;-78
2023/11/29 03:47:29;;;;;;;1.70;1.50;;;1.40;98.20;;;;;;5040283;28;20544;-77
2023/11/29 03:49:56;;;;;;;1.70;1.50;;;1.40;98.20;;;;;;5049697;28;21163;-78
2023/11/29 03:52:24;;;;;;;1.67;1.50;;;1.50;98.20;;;;;;5042399;28;20473;-79
2023/11/29 03:54:51;;;;;;;1.70;1.50;;;1.50;98.20;;;;;;5051054;28;20474;-77
2023/11/29 03:57:18;;;;;;;1.77;1.67;;;1.60;98.20;;;;;;5051956;28;20513;-78
2023/11/29 03:59:44;;;;;;;1.70;1.60;;;1.60;98.20;;;;;;5052309;28;20450;-79
2023/11/29 04:02:11;;;;;;;1.70;1.53;;;1.70;98.20;;;;;;5042122;28;20481;-78
2023/11/29 04:04:39;;;;;;;1.70;1.50;;;1.80;98.20;;;;;;5053104;28;20483;-78
2023/11/29 04:07:06;;;;;;;1.70;1.50;;;1.80;98.20;;;;;;5046611;28;20489;-78
2023/11/29 04:09:34;;;;;;;1.70;1.50;;;1.90;98.20;;;;;;5056346;28;20488;-78
2023/11/29 04:12:01;;;;;;;1.60;1.50;;;1.90;98.20;;;;;;5043292;28;20478;-78
2023/11/29 04:14:28;;;;;;;1.70;1.60;;;1.90;98.20;;;;;;5047456;28;20474;-78
2023/11/29 04:16:54;;;;;;;1.70;1.50;;;2.00;98.20;;;;;;5049096;28;20481;-78
2023/11/29 04:19:21;;;;;;;1.70;1.50;;;2.00;98.20;;;;;;5057031;28;20454;-78
2023/11/29 04:21:48;;;;;;;1.70;1.50;;;2.10;98.20;;;;;;5039246;28;20492;-78
2023/11/29 04:24:15;;;;;;;2.53;2.33;;;2.10;98.20;;;;;;5048233;28;20482;-78
2023/11/29 04:26:43;;;;;;;1.70;1.60;;;2.10;98.20;;;;;;5042677;28;20535;-78
2023/11/29 04:29:11;;;;;;;1.70;1.50;;;2.20;98.20;;;;;;5052750;28;21182;-79
2023/11/29 04:31:39;;;;;;;1.90;1.80;;;2.20;98.20;;;;;;5044095;28;21008;-79
2023/11/29 04:34:07;;;;;;;1.70;1.50;;;2.20;98.20;;;;;;5059575;28;20573;-80
2023/11/29 04:36:34;;;;;;;1.70;1.50;;;2.20;98.20;;;;;;5042834;28;20477;-80
2023/11/29 04:39:01;;;;;;;1.70;1.50;;;2.20;98.20;;;;;;5057556;28;21079;-80
2023/11/29 04:41:28;;;;;;;1.70;1.50;;;2.30;98.20;;;;;;5033248;28;20836;-81
2023/11/29 04:43:56;;;;;;;1.70;1.60;;;2.30;98.20;;;;;;5056135;28;20509;-82
2023/11/29 04:46:23;;;;;;;1.70;1.60;;;2.30;98.20;;;;;;5030642;28;20532;-83
2023/11/29 04:48:50;;;;;;;1.70;1.53;;;2.30;98.20;;;;;;5051519;28;20542;-82
2023/11/29 04:51:26;;;;;;;1.70;1.50;;;2.40;98.20;;;;;;5032052;28;20770;-82
2023/11/29 04:53:53;;;;;;;1.70;1.50;;;2.40;98.20;;;;;;5057246;28;20876;-82
2023/11/29 04:56:20;;;;;;;1.70;1.50;;;2.40;98.20;;;;;;5037721;28;20576;-82
2023/11/29 04:58:47;;;;;;;1.70;1.60;;;2.40;98.20;;;;;;5064528;28;20583;-82
2023/11/29 05:01:15;;;;;;;1.70;1.57;;;2.40;98.20;;;;;;5041196;28;20576;-83
2023/11/29 05:03:42;;;;;;;1.70;1.50;;;2.40;98.20;;;;;;5055522;28;20577;-83
2023/11/29 05:06:10;;;;;;;1.77;1.67;;;2.40;98.20;;;;;;5034374;28;21016;-83
2023/11/29 05:08:37;;;;;;;1.70;1.57;;;2.40;98.20;;;;;;5049394;28;20848;-83
2023/11/29 05:11:05;;;;;;;1.70;1.57;;;2.40;98.20;;;;;;5037105;28;20493;-82
2023/11/29 05:13:32;;;;;;;1.70;1.50;;;2.40;98.20;;;;;;5050231;28;21011;-81
2023/11/29 05:15:58;;;;;;;1.70;1.40;;;2.40;98.20;;;;;;5035461;28;20488;-81
2023/11/29 05:18:26;;;;;;;1.63;1.40;;;2.40;98.20;;;;;;5057642;28;20459;-80
2023/11/29 05:20:53;;;;;;;1.70;1.50;;;2.40;98.20;;;;;;5036114;28;20199;-81
2023/11/29 05:23:21;;;;;;;1.70;1.60;;;2.40;98.20;;;;;;5054261;28;20490;-81
2023/11/29 05:25:47;;;;;;;1.70;1.50;;;2.40;98.20;;;;;;5034734;28;20459;-80
2023/11/29 05:28:14;;;;;;;1.60;1.40;;;2.40;98.20;;;;;;5052678;28;20467;-80
2023/11/29 05:30:42;;;;;;;1.67;1.50;;;2.40;98.20;;;;;;5050390;28;20525;-80
2023/11/29 05:33:08;;;;;;;1.70;1.50;;;2.40;98.20;;;;;;5048189;28;20993;-79
2023/11/29 05:35:37;;;;;;;1.70;1.50;;;2.40;98.20;;;;;;5040815;28;20536;-79
2023/11/29 05:38:03;;;;;;;1.70;1.53;;;2.50;98.20;;;;;;5046309;28;20495;-80
2023/11/29 05:40:30;;;;;;;1.70;1.50;;;2.50;98.20;;;;;;5050441;28;20997;-79
2023/11/29 05:42:57;;;;;;;1.70;1.60;;;2.50;98.20;;;;;;5046826;28;20875;-80
2023/11/29 05:45:24;;;;;;;1.70;1.50;;;2.50;98.20;;;;;;5045738;28;20463;-79
2023/11/29 05:47:50;;;;;;;1.70;1.60;;;2.50;98.20;;;;;;5051484;28;20474;-79
2023/11/29 05:50:17;;;;;;;1.63;1.40;;;2.50;98.20;;;;;;5044687;28;21004;-80
2023/11/29 05:52:46;;;;;;;1.70;1.40;;;2.50;98.20;;;;;;5046559;28;20485;-79
2023/11/29 05:55:13;;;;;;;1.70;1.50;;;2.60;98.20;;;;;;5047984;28;20490;-81
2023/11/29 05:57:44;;;;;;;1.67;1.40;;;2.60;98.20;;;;;;5046981;28;20466;-81
2023/11/29 06:00:14;;;;;;;1.70;1.40;;;2.60;98.20;;;;;;5045097;28;20478;-81
2023/11/29 06:02:41;;;;;;;1.70;1.60;;;2.60;98.20;;;;;;5040919;28;20724;-81
2023/11/29 06:05:09;;;;;;;1.70;1.50;;;2.60;98.20;;;;;;5049857;28;20528;-81
2023/11/29 06:07:36;;;;;;;1.70;1.50;;;2.60;98.20;;;;;;5046895;28;20509;-80
2023/11/29 06:10:06;;;;;;;1.70;1.50;;;2.60;98.20;;;;;;5047848;28;20595;-80
2023/11/29 06:12:33;;;;;;;1.77;1.67;;;2.60;98.20;;;;;;5056352;28;20475;-80
2023/11/29 06:15:04;;;;;;;1.63;1.40;;;2.70;98.20;;;;;;5058535;28;20471;-81
2023/11/29 06:17:32;;;;;;;1.63;1.40;;;2.70;98.20;;;;;;5052478;28;20517;-82
2023/11/29 06:19:59;;;;;;;1.70;1.50;;;2.70;98.20;;;;;;5050530;28;20455;-82
2023/11/29 06:22:27;;;;;;;1.70;1.53;;;2.70;98.20;;;;;;5047037;28;20634;-83
2023/11/29 06:24:54;;;;;;;1.70;1.40;;;2.70;98.20;;;;;;5042744;28;20517;-83
2023/11/29 06:27:22;;;;;;;1.70;1.40;;;2.70;98.20;;;;;;5037471;28;20486;-82
2023/11/29 06:29:49;;;;;;;1.80;1.70;;;2.80;98.20;;;;;;5046710;28;20491;-81
2023/11/29 06:32:15;;;;;;;2.20;2.00;;;2.80;98.20;;;;;;5044973;28;20490;-80
2023/11/29 06:34:44;;;;;;;1.70;1.40;;;2.80;98.20;;;;;;5049614;28;20478;-80
2023/11/29 06:37:10;;;;;;;1.70;1.50;;;2.80;98.20;;;;;;5040073;28;20478;-80
2023/11/29 06:39:37;;;;;;;1.70;1.40;;;2.80;98.20;;;;;;5043951;28;20473;-80
2023/11/29 06:42:05;;;;;;;1.67;1.40;;;2.90;98.20;;;;;;5037079;28;20482;-80
2023/11/29 06:44:33;;;;;;;1.63;1.50;;;2.90;98.20;;;;;;5044100;28;20479;-80
2023/11/29 06:47:01;;;;;;;1.63;1.40;;;2.80;98.20;;;;;;5044535;28;20995;-80
2023/11/29 06:49:28;;;;;;;1.70;1.50;;;2.80;98.20;;;;;;5050053;28;20457;-80
2023/11/29 06:51:54;;;;;;;1.70;1.47;;;2.80;98.20;;;;;;5036394;28;20483;-80
2023/11/29 06:54:21;;;;;;;1.67;1.43;;;2.80;98.20;;;;;;5051346;28;20494;-79
2023/11/29 06:56:48;;;;;;;1.70;1.40;;;2.80;98.20;;;;;;5042410;28;20481;-80
2023/11/29 06:59:15;;;;;;;1.60;1.40;;;2.80;98.20;;;;;;5052288;28;20461;-79
2023/11/29 07:01:43;;;;;;;1.70;1.50;;;2.80;98.20;;;;;;5033951;28;20608;-80
2023/11/29 07:04:10;;;;;;;1.70;1.50;;;2.80;98.20;;;;;;5044923;28;20636;-81
2023/11/29 07:06:39;;;;;;;1.70;1.40;;;2.80;98.20;;;;;;5033183;28;20483;-79
2023/11/29 07:09:07;;;;;;;1.83;1.70;;;2.80;98.20;;;;;;5047412;28;20541;-81
2023/11/29 07:11:36;;;;;;;1.67;1.40;;;2.80;98.20;;;;;;5029759;28;20673;-81
2023/11/29 07:14:03;;;;;;;1.70;1.50;;;2.80;98.20;;;;;;5046202;28;20523;-77
2023/11/29 07:16:30;;;;;;;1.70;1.40;;;2.80;98.20;;;;;;5036516;28;21138;-80
2023/11/29 07:18:58;;;;;;;1.70;1.47;;;2.80;98.20;;;;;;5045530;28;20469;-81
2023/11/29 07:21:25;;;;;;;1.70;1.50;;;2.80;98.20;;;;;;5037806;28;20474;-81
2023/11/29 07:23:51;;;;;;;1.70;1.50;;;2.90;98.20;;;;;;5043211;28;20475;-81
2023/11/29 07:26:18;;;;;;;1.80;1.60;;;2.90;98.20;;;;;;5034321;28;20465;-81
2023/11/29 07:28:47;;;;;;;1.70;1.40;;;2.90;98.20;;;;;;5045667;28;20565;-81
2023/11/29 07:31:14;;;;;;;1.70;1.40;;;2.90;98.20;;;;;;5032379;28;20612;-80
2023/11/29 07:33:41;;;;;;;1.70;1.47;;;2.90;98.20;;;;;;5048437;28;20497;-80
2023/11/29 07:36:12;;;;;;;1.70;1.40;;;2.90;98.20;;;;;;5030426;28;20475;-81
2023/11/29 07:38:40;;;;;;;1.70;1.47;;;3.00;98.20;;;;;;5050737;28;20459;-81
2023/11/29 07:41:06;;;;;;;1.70;1.50;;;3.00;98.20;;;;;;5038142;28;20471;-79
2023/11/29 07:43:33;;;;;;;1.70;1.40;;;3.00;98.20;;;;;;5047194;28;20493;-79
2023/11/29 07:46:00;;;;;;;1.60;1.40;;;3.00;98.20;;;;;;5035578;28;20458;-79
2023/11/29 07:48:27;;;;;;;1.70;1.60;;;3.00;98.20;;;;;;5050837;28;20853;-80
2023/11/29 07:50:56;;;;;;;1.70;1.50;;;3.00;98.20;;;;;;5037268;28;20486;-80
2023/11/29 07:53:24;;;;;;;1.67;1.40;;;3.00;98.20;;;;;;5066255;28;20542;-80
2023/11/29 07:55:51;;;;;;;1.70;1.50;;;3.00;98.20;;;;;;5032584;28;20477;-79
2023/11/29 07:58:18;;;;;;;1.67;1.40;;;3.00;98.20;;;;;;5051119;28;20466;-79
2023/11/29 08:00:45;;;;;;;1.60;1.40;;;3.00;98.20;;;;;;5047643;28;20997;-78
2023/11/29 08:03:12;;;;;;;1.70;1.50;;;3.10;98.20;;;;;;5033073;28;20565;-78
2023/11/29 08:05:40;;;;;;;1.60;1.40;;;3.10;98.20;;;;;;5049704;28;20967;-81
2023/11/29 08:08:07;;;;;;;1.67;1.40;;;3.10;98.20;;;;;;5044979;28;20628;-81
2023/11/29 08:10:35;;;;;;;1.70;1.50;;;3.10;98.20;;;;;;5053344;28;20536;-79
2023/11/29 08:13:02;;;;;;;1.67;1.43;;;3.10;98.20;;;;;;5049302;28;21115;-80
2023/11/29 08:15:29;;;;;;;1.70;1.50;;;3.10;98.20;;;;;;5047612;28;20981;-81
2023/11/29 08:17:56;;;;;;;1.63;1.40;;;3.20;98.20;;;;;;5045284;28;20478;-81
2023/11/29 08:20:23;;;;;;;1.60;1.40;;;3.20;98.20;;;;;;5051399;28;20451;-81
2023/11/29 08:22:50;;;;;;;6.43;5.93;;;3.20;98.20;;;;;;5047037;28;21136;-83
2023/11/29 08:25:23;;;;;;;1.70;1.50;;;3.30;98.20;;;;;;5049076;28;20489;-80
2023/11/29 08:27:51;;;;;;;1.70;1.40;;;3.30;98.20;;;;;;5058450;28;20484;-80
2023/11/29 08:30:19;;;;;;;1.77;1.67;;;3.30;98.20;;;;;;5040571;28;20491;-80
2023/11/29 08:32:46;;;;;;;1.67;1.40;;;3.30;98.20;;;;;;5056612;28;20552;-79
2023/11/29 08:35:13;;;;;;;1.70;1.40;;;3.40;98.20;;;;;;5045357;28;21005;-80
2023/11/29 08:37:40;;;;;;;1.70;1.47;;;3.40;98.20;;;;;;5047757;28;20547;-79
2023/11/29 08:40:08;;;;;;;1.63;1.40;;;3.40;98.20;;;;;;5050005;28;20799;-79
2023/11/29 08:42:35;;;;;;;1.70;1.53;;;3.40;98.20;;;;;;5044977;28;21123;-80
2023/11/29 08:45:04;;;;;;;3.20;2.90;;;3.50;98.20;;;;;;5046447;28;20480;-82
2023/11/29 08:47:32;;;;;;;1.70;1.40;;;3.50;98.20;;;;;;5045246;28;20478;-81
2023/11/29 08:49:59;;;;;;;1.67;1.40;;;3.50;98.20;;;;;;5048287;28;20813;-81
2023/11/29 08:52:25;;;;;;;1.60;1.40;;;3.50;98.20;;;;;;5046000;28;20885;-80
2023/11/29 08:54:53;;;;;;;1.70;1.40;;;3.60;98.20;;;;;;5048845;28;20486;-81
2023/11/29 08:57:23;;;;;;;1.70;1.50;;;3.60;98.20;;;;;;5053518;28;21102;-81
2023/11/29 08:59:51;;;;;;;1.67;1.50;;;3.70;98.20;;;;;;5058621;28;20458;-82
2023/11/29 09:02:20;;;;;;;2.53;2.33;;;3.70;98.20;;;;;;5044075;28;20486;-81
2023/11/29 09:04:47;;;;;;;1.63;1.40;;;3.80;98.20;;;;;;5051744;28;20492;-80
2023/11/29 09:07:13;;;;;;;1.70;1.40;;;3.80;98.20;;;;;;5047851;28;20543;-81
2023/11/29 09:09:41;;;;;;;1.70;1.57;;;3.90;98.20;;;;;;5046630;28;20464;-80
2023/11/29 09:12:08;;;;;;;1.70;1.40;;;3.90;98.20;;;;;;5048138;28;20493;-79
2023/11/29 09:14:35;;;;;;;1.70;1.50;;;3.90;98.20;;;;;;5054717;28;20478;-80
2023/11/29 09:17:03;;;;;;;1.70;1.60;;;3.90;98.20;;;;;;5046232;28;20482;-80
2023/11/29 09:19:32;;;;;;;1.70;1.40;;;4.00;98.20;;;;;;5052202;28;20462;-79
2023/11/29 09:21:59;;;;;;;1.63;1.40;;;4.00;98.20;;;;;;5043688;28;20481;-81
2023/11/29 09:24:26;;;;;;;1.60;1.30;;;4.00;98.20;;;;;;5046895;28;21430;-78
2023/11/29 09:26:54;;;;;;;1.70;1.50;;;4.00;98.20;;;;;;5045421;28;20979;-78
2023/11/29 09:29:25;;;;;;;2.00;1.80;;;4.10;98.20;;;;;;5051037;28;20455;-78
2023/11/29 09:31:52;;;;;;;1.70;1.50;;;4.10;98.20;;;;;;5045023;28;20655;-79
2023/11/29 09:34:20;;;;;;;1.60;1.37;;;4.20;98.20;;;;;;5047141;28;20494;-80
2023/11/29 09:36:48;;;;;;;1.70;1.40;;;4.30;98.20;;;;;;5044867;28;20628;-80
2023/11/29 09:39:17;;;;;;;1.63;1.40;;;4.40;98.20;;;;;;5048979;28;20904;-79
2023/11/29 09:41:45;;;;;;;1.67;1.37;;;4.40;98.20;;;;;;5038076;28;20470;-80
2023/11/29 09:44:13;;;;;;;1.63;1.30;;;4.40;98.20;;;;;;5054990;28;20946;-81
2023/11/29 09:46:40;;;;;;;1.60;1.33;;;4.30;98.20;;;;;;5050438;28;20485;-81
2023/11/29 09:49:08;;;;;;;1.60;1.30;;;4.30;98.20;;;;;;5056921;28;20543;-82
2023/11/29 09:51:34;;;;;;;1.63;1.40;;;4.30;98.20;;;;;;5044242;28;20482;-83
2023/11/29 09:54:04;;;;;;;8.60;8.13;;;4.30;98.20;;;;;;5050438;28;20488;-82
2023/11/29 09:56:31;;;;;;;1.60;1.30;;;4.30;98.20;;;;;;5047096;28;20540;-85
2023/11/29 09:58:58;;;;;;;1.70;1.40;;;4.30;98.20;;;;;;5057711;28;21428;-84
2023/11/29 10:01:26;;;;;;;1.63;1.30;;;4.30;98.20;;;;;;5043482;28;20670;-80
2023/11/29 10:04:03;;;;;;;1.60;1.30;;;4.40;98.20;;;;;;5055940;28;20487;-80
2023/11/29 10:06:30;;;;;;;1.67;1.40;;;4.40;98.20;;;;;;5049846;28;20565;-83
2023/11/29 10:08:57;;;;;;;1.63;1.30;;;4.40;98.20;;;;;;5055092;28;20468;-81
2023/11/29 10:11:29;;;;;;;1.70;1.30;;;4.50;98.20;;;;;;5038105;28;20839;-82
2023/11/29 10:13:56;;;;;;;1.70;1.40;;;4.50;98.20;;;;;;5048325;28;20471;-82
2023/11/29 10:16:23;;;;;;;1.63;1.40;;;4.50;98.20;;;;;;5040674;28;20540;-82
2023/11/29 10:18:50;;;;;;;1.60;1.30;;;4.60;98.20;;;;;;5059566;28;20495;-81
2023/11/29 10:21:17;;;;;;;1.67;1.40;;;4.60;98.20;;;;;;5039771;28;20469;-80
2023/11/29 10:23:47;;;;;;;1.63;1.30;;;4.70;98.20;;;;;;5051392;28;20585;-82
2023/11/29 10:26:14;;;;;;;1.60;1.30;;;4.70;98.20;;;;;;5040537;28;20478;-82
2023/11/29 10:28:43;;;;;;;1.67;1.30;;;4.80;98.20;;;;;;5058083;28;20890;-84
2023/11/29 10:31:10;;;;;;;1.60;1.30;;;4.80;98.20;;;;;;5039699;28;20481;-82
2023/11/29 10:33:40;;;;;;;1.67;1.40;;;4.80;98.20;;;;;;5054019;28;20489;-82
2023/11/29 10:36:07;;;;;;;1.63;1.40;;;4.90;98.20;;;;;;5033694;28;20466;-81
2023/11/29 10:38:40;;;;;;;1.70;1.40;;;4.90;98.20;;;;;;5056217;28;20468;-86
2023/11/29 10:41:08;;;;;;;1.63;1.30;;;4.90;98.20;;;;;;5039041;28;20480;-82
2023/11/29 10:43:38;;;;;;;1.60;1.30;;;4.80;98.20;;;;;;5059416;28;20474;-83
2023/11/29 10:46:12;;;;;;;1.60;1.30;;;4.80;98.20;;;;;;5041383;28;20463;-84
2023/11/29 10:48:44;;;;;;;1.67;1.30;;;4.80;98.20;;;;;;5059005;28;20450;-82
2023/11/29 10:51:13;;;;;;;1.60;1.40;;;4.80;98.20;;;;;;5033205;28;20493;-81
2023/11/29 10:53:40;;;;;;;1.70;1.30;;;4.70;98.20;;;;;;5059220;28;20514;-80
2023/11/29 10:56:09;;;;;;;1.60;1.30;;;4.70;98.20;;;;;;5043289;28;20513;-84
2023/11/29 10:58:42;;;;;;;1.63;1.30;;;4.70;98.20;;;;;;5050689;28;20460;-81
2023/11/29 11:01:11;;;;;;;1.60;1.30;;;4.70;98.20;;;;;;5036073;28;20474;-81
2023/11/29 11:03:42;;;;;;;1.70;1.40;;;4.70;98.20;;;;;;5057955;28;20566;-80
2023/11/29 11:06:35;;;;;;;1.63;1.40;;;4.80;98.20;;;;;;5037816;28;20506;-82
2023/11/29 11:09:04;;;;;;;1.63;1.33;;;4.80;98.20;;;;;;5052810;28;20459;-84
2023/11/29 11:11:47;;;;;;;1.60;1.30;;;5.00;98.20;;;;;;5042785;28;20478;-81
2023/11/29 11:14:19;;;;;;;1.63;1.40;;;5.10;98.20;;;;;;5046896;28;20891;-82
2023/11/29 11:17:00;;;;;;;1.67;1.40;;;5.20;98.20;;;;;;5044241;28;20481;-82
2023/11/29 11:19:33;;;;;;;1.70;1.40;;;5.30;98.20;;;;;;5052743;28;20457;-81
2023/11/29 11:22:01;;;;;;;1.70;1.40;;;5.30;98.20;;;;;;5045674;28;21013;-82
2023/11/29 11:25:03;;;;;;;1.60;1.30;;;5.30;98.20;;;;;;5053823;28;20485;-82
2023/11/29 11:27:35;;;;;;;1.67;1.30;;;5.30;98.20;;;;;;5048229;28;20920;-84
2023/11/29 11:30:24;;;;;;;1.70;1.40;;;5.30;98.20;;;;;;5045112;28;20459;-85
2023/11/29 11:32:56;;;;;;;1.60;1.30;;;5.30;98.20;;;;;;5040140;28;20872;-82
2023/11/29 11:35:36;;;;;;;1.60;1.30;;;5.30;98.20;;;;;;5044170;28;20549;-81
2023/11/29 11:38:07;;;;;;;1.63;1.40;;;5.30;98.20;;;;;;5047734;28;20488;-82
2023/11/29 11:40:37;;;;;;;1.60;1.33;;;5.40;98.20;;;;;;5053323;28;20462;-82
2023/11/29 11:43:05;;;;;;;1.63;1.30;;;5.40;98.20;;;;;;5051443;28;20481;-82
2023/11/29 11:45:33;;;;;;;1.93;1.73;;;5.40;98.20;;;;;;5044336;28;21015;-84
2023/11/29 11:48:04;;;;;;;1.60;1.30;;;5.30;98.20;;;;;;5052059;28;20482;-81
2023/11/29 11:50:31;;;;;;;1.60;1.30;;;5.30;98.20;;;;;;5046846;28;20965;-81
2023/11/29 11:53:00;;;;;;;1.67;1.40;;;5.30;98.20;;;;;;5051178;28;20474;-83
2023/11/29 11:55:28;;;;;;;1.60;1.30;;;5.30;98.20;;;;;;5045422;28;20447;-84
2023/11/29 11:57:58;;;;;;;1.70;1.50;;;5.30;98.20;;;;;;5044803;28;20604;-80
2023/11/29 12:00:26;;;;;;;1.67;1.40;;;5.30;98.20;;;;;;5047382;28;20530;-82
2023/11/29 12:02:54;;;;;;;1.70;1.50;;;5.20;98.20;;;;;;5045904;28;20501;-85
2023/11/29 12:05:22;;;;;;;1.60;1.40;;;5.20;98.20;;;;;;5045264;28;21041;-81
2023/11/29 12:07:50;;;;;;;1.63;1.30;;;5.20;98.20;;;;;;5042867;28;20478;-82
2023/11/29 12:10:18;;;;;;;1.63;1.30;;;5.10;98.20;;;;;;5044117;28;20455;-82
2023/11/29 12:12:46;;;;;;;1.63;1.30;;;5.00;98.20;;;;;;5049093;28;21040;-80
2023/11/29 12:15:15;;;;;;;1.67;1.37;;;5.00;98.20;;;;;;5043336;28;20490;-82
2023/11/29 12:17:42;;;;;;;1.70;1.43;;;4.90;98.20;;;;;;5050390;28;20507;-84
2023/11/29 12:20:11;;;;;;;1.60;1.40;;;4.90;98.20;;;;;;5047065;28;20558;-82
2023/11/29 12:22:42;;;;;;;1.60;1.30;;;4.90;98.20;;;;;;5047843;28;20474;-82
2023/11/29 12:25:14;;;;;;;1.60;1.30;;;4.90;98.20;;;;;;5052135;28;20565;-81
2023/11/29 12:27:44;;;;;;;1.60;1.30;;;4.90;98.20;;;;;;5046607;28;20477;-82
2023/11/29 12:30:12;;;;;;;1.60;1.30;;;4.90;98.20;;;;;;5049594;28;20455;-84
2023/11/29 12:32:40;;;;;;;1.60;1.30;;;4.80;98.20;;;;;;5050765;28;20914;-85
2023/11/29 12:35:08;;;;;;;1.60;1.30;;;4.80;98.20;;;;;;5051167;28;20483;-82
2023/11/29 12:37:35;;;;;;;1.67;1.30;;;4.80;98.20;;;;;;5050758;28;20519;-84
2023/11/29 12:40:04;;;;;;;1.60;1.30;;;4.70;98.20;;;;;;5052754;28;20477;-83
2023/11/29 12:42:32;;;;;;;1.60;1.30;;;4.80;98.20;;;;;;5060354;28;20481;-81
2023/11/29 12:44:59;;;;;;;1.70;1.40;;;4.80;98.20;;;;;;5063756;28;20533;-84
2023/11/29 12:47:29;;;;;;;1.60;1.30;;;4.70;98.20;;;;;;5070503;28;20477;-82
2023/11/29 12:49:56;;;;;;;1.63;1.40;;;4.70;98.20;;;;;;5066715;28;20543;-81
2023/11/29 12:52:23;;;;;;;1.63;1.30;;;4.70;98.20;;;;;;5042196;28;20509;-83
2023/11/29 12:54:50;;;;;;;1.70;1.40;;;4.60;98.20;;;;;;5054938;28;20476;-83
2023/11/29 12:57:18;;;;;;;1.67;1.40;;;4.60;98.20;;;;;;5046480;28;21070;-83
2023/11/29 12:59:45;;;;;;;1.70;1.30;;;4.60;98.20;;;;;;5055651;28;20484;-83
2023/11/29 13:02:12;;;;;;;1.70;1.40;;;4.60;98.20;;;;;;5042219;28;20573;-82